Iron River, Michigan
Current Conditions -  °F | °C
As of 9:35 PM on Saturday 22 Nov 2014 (Local Time) from KLNL Reporting Station
Haze Haze  
Wind Chill: 30°   Ceiling: 200
Heat Index: 34°   Visibility: 1.2mi
Dew Point: 33°   Wind: 5mph
Humidity: 99%   Direction: 180°S
Pressure: 29.67"   Gusts: NA
Location:  46.09°N, 88.64°W
Report Text: KLNL 230335Z AUTO 18004KT 1 1/4SM BR OVC002 01/01 A2967 RMK AO2 T00100008
Loading
Personal Weather Stations






























Interactive Weather Map New forecast layout! Learn more

10-Day Weather Forecast

Advertisements
Track Severe Weather on mobile